Time;durP1;ratioP1;P1;durP2;ratioP2;P2;SDS_P1;SDS_P2;PMS_P1;PMS_P2;Temp;Humidity;BMP_temperature;BMP_pressure;BME280_temperature;BME280_humidity;BME280_pressure;Samples;Min_cycle;Max_cycle;Signal;HPM_P1;HPM_P2
2021/03/12 00:01:30;;;;;;;26.15;7.85;;;;;;;-8.15;67.81;101768.68;1749484;82;20975;-40
2021/03/12 00:03:58;;;;;;;19.23;7.72;;;;;;;-8.17;67.90;101765.17;1749620;82;20943;-40
2021/03/12 00:06:26;;;;;;;16.32;7.90;;;;;;;-8.19;67.87;101765.44;1749755;82;22274;-39
2021/03/12 00:08:54;;;;;;;19.37;8.93;;;;;;;-8.21;67.94;101768.17;1749631;82;20923;-40
2021/03/12 00:11:23;;;;;;;19.57;7.90;;;;;;;-8.25;68.03;101762.05;1748652;82;20940;-40
2021/03/12 00:13:51;;;;;;;17.87;8.93;;;;;;;-8.30;68.37;101764.59;1749613;82;20958;-41
2021/03/12 00:16:19;;;;;;;26.17;8.43;;;;;;;-8.34;68.45;101766.33;1749951;81;21042;-40
2021/03/12 00:18:48;;;;;;;15.58;8.35;;;;;;;-8.37;68.87;101761.06;1752324;81;21589;-42
2021/03/12 00:21:16;;;;;;;24.43;9.30;;;;;;;-8.35;69.04;101759.95;1752319;81;21501;-41
2021/03/12 00:23:44;;;;;;;19.40;8.55;;;;;;;-8.34;69.13;101762.56;1752408;81;21014;-41
2021/03/12 00:26:12;;;;;;;19.90;8.63;;;;;;;-8.33;69.22;101760.58;1752304;81;20939;-40
2021/03/12 00:28:40;;;;;;;32.63;9.38;;;;;;;-8.34;69.62;101753.77;1752337;81;21070;-41
2021/03/12 00:31:08;;;;;;;22.30;9.18;;;;;;;-8.33;69.42;101750.89;1752370;81;21247;-41
2021/03/12 00:33:36;;;;;;;24.98;9.28;;;;;;;-8.32;69.41;101752.28;1752238;81;21089;-41
2021/03/12 00:36:06;;;;;;;21.52;7.90;;;;;;;-8.32;69.37;101758.92;1752250;81;21077;-42
2021/03/12 00:38:34;;;;;;;20.15;9.13;;;;;;;-8.37;69.39;101754.42;1752329;81;20935;-42
2021/03/12 00:41:05;;;;;;;25.37;7.97;;;;;;;-8.41;69.50;101762.48;1752382;81;21014;-41
2021/03/12 00:43:37;;;;;;;15.75;7.70;;;;;;;-8.43;69.45;101758.08;1750853;80;22412;-41
2021/03/12 00:46:10;;;;;;;34.60;8.53;;;;;;;-8.45;68.87;101755.45;1751803;81;21057;-41
2021/03/12 00:48:38;;;;;;;25.50;8.08;;;;;;;-8.43;68.04;101751.43;1752311;81;21054;-41
2021/03/12 00:51:07;;;;;;;18.90;7.70;;;;;;;-8.40;67.71;101757.06;1752272;81;20999;-41
2021/03/12 00:53:36;;;;;;;21.73;7.83;;;;;;;-8.39;67.30;101762.58;1751287;81;20983;-41
2021/03/12 00:56:05;;;;;;;24.63;7.30;;;;;;;-8.38;67.35;101758.05;1752226;81;22190;-41
2021/03/12 00:58:32;;;;;;;25.50;7.15;;;;;;;-8.41;67.15;101749.91;1724614;81;20996;-40
2021/03/12 01:01:01;;;;;;;18.30;7.45;;;;;;;-8.43;67.06;101746.77;1752270;81;21010;-41
2021/03/12 01:03:32;;;;;;;25.20;7.33;;;;;;;-8.45;67.01;101742.90;1752251;81;20980;-41
2021/03/12 01:06:01;;;;;;;15.48;6.28;;;;;;;-8.49;66.96;101737.10;1751798;81;20959;-40
2021/03/12 01:08:31;;;;;;;22.13;5.78;;;;;;;-8.52;66.44;101734.39;1751526;81;21223;-40
2021/03/12 01:10:59;;;;;;;16.20;6.20;;;;;;;-8.54;66.11;101726.75;1752215;81;21288;-40
2021/03/12 01:13:27;;;;;;;17.05;6.20;;;;;;;-8.56;65.89;101717.32;1724694;81;21602;-41
2021/03/12 01:15:55;;;;;;;32.83;6.45;;;;;;;-8.57;65.62;101711.44;1752197;81;20962;-40
2021/03/12 01:18:25;;;;;;;18.32;5.97;;;;;;;-8.59;65.66;101710.41;1748923;81;20931;-40
2021/03/12 01:20:55;;;;;;;11.60;6.03;;;;;;;-8.61;65.02;101711.06;1749501;82;21223;-41
2021/03/12 01:23:23;;;;;;;15.25;6.10;;;;;;;-8.61;64.76;101704.78;1749538;82;21355;-41
2021/03/12 01:25:52;;;;;;;19.87;5.65;;;;;;;-8.61;64.10;101707.30;1749593;82;20907;-41
2021/03/12 01:28:21;;;;;;;18.42;6.45;;;;;;;-8.63;63.70;101705.91;1749637;82;20943;-41
2021/03/12 01:30:49;;;;;;;29.52;5.75;;;;;;;-8.67;63.59;101702.66;1749644;82;20979;-41
2021/03/12 01:33:22;;;;;;;33.75;6.67;;;;;;;-8.67;63.82;101710.19;1747842;82;21436;-41
2021/03/12 01:35:50;;;;;;;31.48;6.28;;;;;;;-8.72;64.05;101706.44;1749537;82;21026;-41
2021/03/12 01:38:18;;;;;;;55.58;8.13;;;;;;;-8.76;64.34;101710.72;1749605;82;20963;-41
2021/03/12 01:40:48;;;;;;;24.98;6.35;;;;;;;-8.79;64.54;101714.25;1749575;82;21011;-41
2021/03/12 01:43:17;;;;;;;35.68;7.67;;;;;;;-8.84;64.85;101711.36;1722293;82;20990;-41
2021/03/12 01:45:47;;;;;;;25.05;7.30;;;;;;;-8.88;65.30;101711.47;1749690;82;22275;-41
2021/03/12 01:48:19;;;;;;;26.23;7.78;;;;;;;-8.90;65.34;101719.26;1749570;82;21037;-41
2021/03/12 01:50:51;;;;;;;10.70;5.08;;;;;;;-8.92;65.15;101721.17;1749587;82;21149;-40
2021/03/12 01:53:21;;;;;;;19.65;5.58;;;;;;;-8.96;65.04;101715.91;1749174;82;21662;-41
2021/03/12 01:55:51;;;;;;;25.88;5.85;;;;;;;-9.00;64.64;101720.14;1749541;82;21003;-41
2021/03/12 01:58:21;;;;;;;27.20;6.28;;;;;;;-9.04;64.68;101716.89;1749581;82;21176;-40
2021/03/12 02:00:50;;;;;;;18.80;6.47;;;;;;;-9.08;64.56;101717.41;1749544;82;21014;-42
2021/03/12 02:03:33;;;;;;;69.85;6.62;;;;;;;-9.14;64.46;101715.27;1748644;82;21002;-42
2021/03/12 02:06:10;;;;;;;51.88;6.90;;;;;;;-9.21;63.93;101715.52;1748929;82;20979;-40
2021/03/12 02:08:40;;;;;;;30.92;6.33;;;;;;;-9.26;63.94;101716.78;1749665;82;20971;-40
2021/03/12 02:11:11;;;;;;;25.65;6.30;;;;;;;-9.31;64.13;101718.91;1748537;82;22045;-40
2021/03/12 02:13:49;;;;;;;15.98;5.85;;;;;;;-9.34;64.02;101716.54;1749528;82;20967;-40
2021/03/12 02:16:31;;;;;;;17.40;5.92;;;;;;;-9.39;64.18;101703.22;1749639;82;21065;-40
2021/03/12 02:19:20;;;;;;;14.40;4.92;;;;;;;-9.40;64.33;101716.91;1749502;82;21141;-41
2021/03/12 02:21:55;;;;;;;18.00;6.25;;;;;;;-9.44;64.05;101710.74;1749443;82;21086;-42
2021/03/12 02:24:44;;;;;;;10.93;5.67;;;;;;;-9.45;64.22;101713.14;1749732;82;22278;-39
2021/03/12 02:27:14;;;;;;;11.93;5.35;;;;;;;-9.50;63.95;101709.34;1745118;82;21102;-40
2021/03/12 02:29:55;;;;;;;11.90;5.97;;;;;;;-9.54;63.04;101701.58;1749541;82;20959;-41
2021/03/12 02:32:37;;;;;;;14.90;5.25;;;;;;;-9.55;62.26;101703.97;1749126;82;21034;-41
2021/03/12 02:35:14;;;;;;;10.32;5.28;;;;;;;-9.58;62.00;101702.08;1749632;82;21149;-39
2021/03/12 02:37:42;;;;;;;9.90;4.00;;;;;;;-9.59;61.47;101706.59;1749537;82;21374;-41
2021/03/12 02:40:10;;;;;;;12.58;5.10;;;;;;;-9.61;61.44;101693.05;1749509;82;20991;-40
2021/03/12 02:42:40;;;;;;;12.45;4.87;;;;;;;-9.61;61.20;101705.59;1662629;83;21028;-42
2021/03/12 02:45:11;;;;;;;10.95;5.33;;;;;;;-9.64;61.35;101697.81;1722910;82;21077;-41
2021/03/12 02:47:39;;;;;;;9.58;4.83;;;;;;;-9.65;61.31;101697.31;1749538;82;21069;-42
2021/03/12 02:50:09;;;;;;;9.93;4.83;;;;;;;-9.64;61.56;101700.68;1722419;82;21390;-41
2021/03/12 02:52:38;;;;;;;9.58;4.75;;;;;;;-9.67;61.65;101690.04;1749577;82;21567;-41
2021/03/12 02:55:08;;;;;;;14.50;5.05;;;;;;;-9.70;61.70;101694.80;1749569;82;20920;-41
2021/03/12 02:57:46;;;;;;;10.08;5.22;;;;;;;-9.72;61.65;101693.41;1749012;82;21125;-41
2021/03/12 03:00:16;;;;;;;10.38;4.85;;;;;;;-9.76;61.57;101693.91;1749524;82;21022;-41
2021/03/12 03:02:45;;;;;;;13.48;5.40;;;;;;;-9.79;61.67;101696.16;1746382;82;21209;-39
2021/03/12 03:05:26;;;;;;;12.95;5.10;;;;;;;-9.77;61.51;101688.75;1889951;75;23174;-42
2021/03/12 03:07:56;;;;;;;8.10;5.20;;;;;;;-9.84;61.22;101683.23;1860843;77;21005;-42
2021/03/12 03:10:25;;;;;;;16.85;5.67;;;;;;;-9.85;61.41;101686.85;1860795;77;21366;-41
2021/03/12 03:12:53;;;;;;;10.23;5.40;;;;;;;-9.89;61.38;101694.51;1822894;78;21279;-42
2021/03/12 03:15:22;;;;;;;11.70;5.22;;;;;;;-9.91;61.62;101692.25;1823055;78;21112;-42
2021/03/12 03:17:51;;;;;;;13.48;5.58;;;;;;;-9.96;61.69;101685.98;1823081;78;21551;-41
2021/03/12 03:20:20;;;;;;;15.78;5.65;;;;;;;-9.98;62.22;101696.22;1822536;78;21015;-41
2021/03/12 03:22:49;;;;;;;10.32;4.70;;;;;;;-10.00;62.15;101693.95;1822978;78;21381;-41
2021/03/12 03:25:17;;;;;;;20.85;6.40;;;;;;;-10.02;62.30;101695.45;1822881;78;21011;-40
2021/03/12 03:27:45;;;;;;;18.90;6.55;;;;;;;-10.03;62.45;101696.20;1823017;78;21071;-41
2021/03/12 03:30:14;;;;;;;12.95;6.03;;;;;;;-10.04;62.65;101703.22;1822870;78;21007;-40
2021/03/12 03:32:44;;;;;;;19.42;5.90;;;;;;;-10.06;62.67;101702.22;1822284;78;20980;-41
2021/03/12 03:35:13;;;;;;;18.50;6.85;;;;;;;-10.09;62.86;101702.85;1823055;78;21346;-41
2021/03/12 03:37:41;;;;;;;16.73;5.95;;;;;;;-10.11;63.15;101695.19;1822975;78;20995;-40
2021/03/12 03:40:10;;;;;;;19.50;6.90;;;;;;;-10.14;63.42;101697.44;1822929;78;21047;-41
2021/03/12 03:42:41;;;;;;;17.10;6.40;;;;;;;-10.15;63.56;101688.53;1805448;78;21047;-41
2021/03/12 03:45:10;;;;;;;15.03;6.70;;;;;;;-10.18;63.88;101682.90;1790546;80;21039;-41
2021/03/12 03:47:39;;;;;;;17.82;7.15;;;;;;;-10.19;64.13;101673.63;1790359;80;21455;-40
2021/03/12 03:50:09;;;;;;;17.32;7.53;;;;;;;-10.19;64.12;101676.49;1790525;80;20945;-39
2021/03/12 03:52:39;;;;;;;23.57;7.47;;;;;;;-10.18;64.25;101676.64;1760708;80;20952;-41
2021/03/12 03:55:11;;;;;;;15.65;6.95;;;;;;;-10.19;64.41;101678.64;1790436;80;20952;-39
2021/03/12 03:57:39;;;;;;;18.00;7.00;;;;;;;-10.19;64.60;101681.50;1760418;80;21083;-41
2021/03/12 04:00:10;;;;;;;19.02;7.50;;;;;;;-10.20;65.02;101673.48;1760743;80;22378;-41
2021/03/12 04:02:44;;;;;;;25.80;8.10;;;;;;;-10.22;65.11;101663.36;1790572;80;20999;-42
2021/03/12 04:05:14;;;;;;;21.70;8.45;;;;;;;-10.21;65.40;101662.61;1761084;79;20993;-40
2021/03/12 04:07:43;;;;;;;20.77;7.30;;;;;;;-10.22;65.74;101673.38;1743046;82;21044;-39
2021/03/12 04:10:13;;;;;;;16.32;6.60;;;;;;;-10.22;65.73;101677.13;1743804;82;20997;-40
2021/03/12 04:12:40;;;;;;;17.98;7.58;;;;;;;-10.21;65.61;101681.39;1716390;82;21467;-41
2021/03/12 04:15:09;;;;;;;21.87;8.03;;;;;;;-10.20;65.58;101691.91;1716629;82;21581;-41
2021/03/12 04:17:37;;;;;;;22.22;7.37;;;;;;;-10.17;65.50;101698.44;1743432;82;21500;-41
2021/03/12 04:20:07;;;;;;;26.65;7.83;;;;;;;-10.18;65.23;101700.44;1743312;82;21041;-40
2021/03/12 04:22:36;;;;;;;26.87;7.28;;;;;;;-10.18;65.28;101707.95;1692716;82;21136;-40
2021/03/12 04:25:05;;;;;;;17.42;7.15;;;;;;;-10.17;65.42;101712.57;1743244;82;21577;-40
2021/03/12 04:27:34;;;;;;;22.00;7.60;;;;;;;-10.18;65.32;101715.47;1743269;82;22232;-41
2021/03/12 04:30:04;;;;;;;29.55;8.15;;;;;;;-10.19;65.13;101709.95;1743331;82;21542;-41
2021/03/12 04:32:32;;;;;;;22.20;7.30;;;;;;;-10.19;65.28;101706.55;1743304;82;21005;-41
2021/03/12 04:35:01;;;;;;;21.60;7.58;;;;;;;-10.17;65.05;101697.55;1743332;82;21005;-41
2021/03/12 04:37:29;;;;;;;20.17;7.83;;;;;;;-10.17;65.15;101677.14;1743338;82;21407;-40
2021/03/12 04:39:57;;;;;;;19.02;7.40;;;;;;;-10.16;65.03;101660.11;1743300;82;21053;-41
2021/03/12 04:42:24;;;;;;;22.40;8.05;;;;;;;-10.15;64.97;101653.09;1743220;82;20958;-41
2021/03/12 04:44:54;;;;;;;27.70;8.13;;;;;;;-10.14;65.23;101652.34;1741407;82;21001;-40
2021/03/12 04:47:21;;;;;;;20.10;7.30;;;;;;;-10.10;65.44;101648.48;1692391;82;20973;-40
2021/03/12 04:49:51;;;;;;;21.17;7.72;;;;;;;-10.05;65.52;101635.07;1785560;80;21365;-41
2021/03/12 04:52:20;;;;;;;21.20;7.67;;;;;;;-9.99;65.56;101625.19;1785464;80;21049;-40
2021/03/12 04:54:50;;;;;;;23.70;7.78;;;;;;;-9.92;65.30;101610.30;1759183;80;21610;-40
2021/03/12 04:57:18;;;;;;;30.45;8.70;;;;;;;-9.84;65.14;101620.57;1711568;80;20946;-41
2021/03/12 04:59:46;;;;;;;29.40;9.08;;;;;;;-9.77;64.98;101622.33;1785532;80;20990;-41
2021/03/12 05:02:14;;;;;;;27.10;8.75;;;;;;;-9.70;64.94;101625.86;1785469;80;21365;-40
2021/03/12 05:04:43;;;;;;;35.78;9.23;;;;;;;-9.61;64.71;101619.09;1759435;80;21104;-40
2021/03/12 05:07:12;;;;;;;27.40;7.10;;;;;;;-9.53;64.36;101613.05;1758779;81;21039;-42
2021/03/12 05:09:57;;;;;;;;;;;;;;;-9.43;63.92;101605.91;1768099;81;21000;-41
2021/03/12 05:12:26;;;;;;;32.48;8.65;;;;;;;-9.29;64.42;101617.45;1765519;81;20193;-41
2021/03/12 05:14:55;;;;;;;29.30;8.58;;;;;;;-9.16;63.93;101608.02;1765506;81;21380;-41
2021/03/12 05:17:23;;;;;;;32.93;9.08;;;;;;;-9.02;63.76;101604.95;1765443;81;20945;-40
2021/03/12 05:19:52;;;;;;;22.90;9.10;;;;;;;-8.89;63.26;101605.94;1765517;81;20890;-41
2021/03/12 05:22:19;;;;;;;22.52;7.92;;;;;;;-8.82;63.18;101608.17;1765445;81;20989;-41
2021/03/12 05:24:47;;;;;;;25.48;9.65;;;;;;;-8.76;63.07;101614.92;1765458;81;20949;-41
2021/03/12 05:27:16;;;;;;;22.50;8.83;;;;;;;-8.71;62.69;101625.33;1765458;81;21378;-41
2021/03/12 05:29:45;;;;;;;51.50;10.28;;;;;;;-8.76;62.50;101618.68;1765605;81;21021;-41
2021/03/12 05:32:13;;;;;;;19.02;7.65;;;;;;;-8.78;62.85;101619.34;1765494;81;20878;-40
2021/03/12 05:34:43;;;;;;;44.35;10.13;;;;;;;-8.77;62.75;101631.99;1765468;81;21037;-42
2021/03/12 05:37:13;;;;;;;23.18;8.05;;;;;;;-8.75;62.81;101625.85;1765245;81;21025;-39
2021/03/12 05:39:41;;;;;;;24.23;8.90;;;;;;;-8.73;62.95;101626.45;1765571;81;22272;-41
2021/03/12 05:42:10;;;;;;;30.77;9.53;;;;;;;-8.67;63.06;101634.85;1765345;81;20985;-42
2021/03/12 05:44:40;;;;;;;29.40;11.12;;;;;;;-8.66;63.28;101642.52;1765107;81;20941;-41
2021/03/12 05:47:07;;;;;;;25.23;9.33;;;;;;;-8.57;63.57;101646.50;1765484;81;20988;-41
2021/03/12 05:49:35;;;;;;;25.25;7.95;;;;;;;-8.53;63.53;101640.95;1765395;81;20917;-40
2021/03/12 05:52:05;;;;;;;25.40;8.03;;;;;;;-8.47;63.27;101640.53;1765515;81;21351;-42
2021/03/12 05:54:33;;;;;;;25.62;8.20;;;;;;;-8.47;63.04;101648.06;1733284;81;21024;-41
2021/03/12 05:57:01;;;;;;;22.48;8.30;;;;;;;-8.44;63.00;101644.17;1765429;81;20890;-41
2021/03/12 05:59:29;;;;;;;22.65;8.60;;;;;;;-8.41;63.26;101646.91;1686382;81;21867;-40
2021/03/12 06:01:57;;;;;;;21.52;8.58;;;;;;;-8.31;63.24;101638.45;1765459;81;20985;-41
2021/03/12 06:04:27;;;;;;;23.50;8.48;;;;;;;-8.21;63.40;101629.96;1765298;81;21303;-41
2021/03/12 06:06:56;;;;;;;24.40;8.70;;;;;;;-8.01;63.59;101631.86;1765372;81;21000;-42
2021/03/12 06:09:24;;;;;;;28.57;9.58;;;;;;;-7.81;63.29;101627.11;1765493;81;21069;-41
2021/03/12 06:11:55;;;;;;;29.12;8.30;;;;;;;-7.69;62.72;101634.30;1765395;81;20945;-41
2021/03/12 06:14:58;;;;;;;17.73;7.72;;;;;;;-7.56;61.51;101642.77;1765374;81;20898;-41
2021/03/12 06:17:46;;;;;;;28.35;8.90;;;;;;;-7.56;61.33;101641.51;1764564;81;21407;-41
2021/03/12 06:20:18;;;;;;;28.92;10.40;;;;;;;-7.52;62.35;101665.73;1763410;81;20978;-42
2021/03/12 06:22:50;;;;;;;44.65;9.30;;;;;;;-7.43;62.26;101658.39;1765539;81;21367;-40
2021/03/12 06:25:21;;;;;;;30.37;7.85;;;;;;;-7.34;62.44;101647.73;1765306;81;20992;-41
2021/03/12 06:28:18;;;;;;;238.28;14.23;;;;;;;-7.26;61.14;101634.06;1765507;81;21029;-40
2021/03/12 06:31:26;;;;;;;37.98;9.43;;;;;;;-7.28;60.63;101644.40;1765597;81;21394;-40
2021/03/12 06:34:09;;;;;;;30.10;7.58;;;;;;;-7.28;61.21;101633.47;1847668;76;22820;-40
2021/03/12 06:36:39;;;;;;;21.25;8.10;;;;;;;-7.29;61.27;101653.11;1783407;79;21654;-40
2021/03/12 06:39:09;;;;;;;23.52;8.43;;;;;;;-7.27;60.78;101670.45;1816922;79;21360;-40
2021/03/12 06:41:43;;;;;;;50.10;9.60;;;;;;;-7.25;60.59;101665.16;1807902;79;20975;-40
2021/03/12 06:44:33;;;;;;;68.83;9.50;;;;;;;-7.19;60.61;101669.77;1785624;80;21535;-41
2021/03/12 06:47:04;;;;;;;29.70;8.30;;;;;;;-7.15;60.81;101667.96;1785546;79;20903;-42
2021/03/12 06:49:33;;;;;;;28.05;8.68;;;;;;;-7.11;60.25;101668.67;1785577;80;20942;-41
2021/03/12 06:52:04;;;;;;;23.12;8.30;;;;;;;-6.97;60.58;101674.31;1784399;80;21402;-41
2021/03/12 06:54:35;;;;;;;23.83;9.40;;;;;;;-6.82;60.30;101666.12;1785650;80;20950;-42
2021/03/12 06:57:20;;;;;;;40.00;9.30;;;;;;;-6.64;59.88;101668.70;1784374;80;21045;-41
2021/03/12 07:00:01;;;;;;;25.45;7.42;;;;;;;-6.54;59.14;101664.30;1783720;80;21065;-41
2021/03/12 07:02:35;;;;;;;37.78;8.70;;;;;;;-6.54;59.03;101650.08;1755163;80;21121;-42
2021/03/12 07:05:07;;;;;;;33.05;8.25;;;;;;;-6.46;58.41;101656.88;1732305;82;21487;-42
2021/03/12 07:07:45;;;;;;;29.85;8.45;;;;;;;-6.43;57.56;101647.05;1785051;80;20964;-41
2021/03/12 07:10:15;;;;;;;21.37;7.83;;;;;;;-6.39;57.93;101664.13;1783214;80;20986;-41
2021/03/12 07:12:53;;;;;;;81.80;11.45;;;;;;;-6.28;57.65;101653.54;1847664;76;22687;-39
2021/03/12 07:15:22;;;;;;;100.80;10.00;;;;;;;-6.23;56.95;101650.05;1817487;79;20955;-41
2021/03/12 07:17:52;;;;;;;29.67;8.58;;;;;;;-6.18;56.23;101656.31;1816223;79;21207;-41
2021/03/12 07:20:23;;;;;;;34.38;8.23;;;;;;;-6.17;56.02;101654.66;1817459;78;20942;-42
2021/03/12 07:22:52;;;;;;;19.77;7.67;;;;;;;-6.14;56.41;101654.48;1817853;78;21054;-40
2021/03/12 07:25:22;;;;;;;36.23;7.78;;;;;;;-6.00;56.03;101654.14;1817794;79;20942;-41
2021/03/12 07:27:52;;;;;;;129.03;10.32;;;;;;;-5.99;55.22;101651.21;1817203;79;21011;-43
2021/03/12 07:30:22;;;;;;;52.48;8.30;;;;;;;-6.01;55.52;101649.01;1816661;77;21492;-41
2021/03/12 07:35:49;;;;;;;17.73;7.05;;;;;;;-5.84;56.08;101643.44;1776950;79;21862;-42
2021/03/12 07:38:28;;;;;;;15.13;6.90;;;;;;;-5.74;54.81;101641.52;1746159;82;20986;-42
2021/03/12 07:41:05;;;;;;;15.23;7.03;;;;;;;-5.71;54.90;101651.44;1695508;82;21389;-42
2021/03/12 07:43:53;;;;;;;26.40;6.70;;;;;;;-5.62;55.12;101646.14;1718765;83;21022;-41
2021/03/12 07:46:27;;;;;;;27.02;6.95;;;;;;;-5.45;53.88;101638.78;1718738;83;21437;-43
2021/03/12 07:48:57;;;;;;;17.42;7.87;;;;;;;-5.43;54.14;101642.28;1719529;83;20974;-40
2021/03/12 07:51:26;;;;;;;45.05;7.40;;;;;;;-5.34;53.48;101634.93;1715985;83;21348;-41
2021/03/12 07:53:56;;;;;;;22.67;6.85;;;;;;;-5.36;53.25;101618.81;1719351;83;21338;-40
2021/03/12 07:56:53;;;;;;;13.18;6.97;;;;;;;-5.32;52.91;101619.90;1719165;83;21368;-40
2021/03/12 07:59:50;;;;;;;15.50;6.65;;;;;;;-5.25;52.66;101614.46;1716511;83;20951;-40
2021/03/12 08:03:00;;;;;;;23.57;7.22;;;;;;;-5.09;52.89;101621.77;1719516;83;21331;-40
2021/03/12 08:05:42;;;;;;;74.90;7.90;;;;;;;-4.97;52.67;101633.05;1719591;83;20935;-41
2021/03/12 08:08:35;;;;;;;25.40;6.70;;;;;;;-4.93;51.37;101616.90;1716008;83;21461;-41
2021/03/12 08:11:34;;;;;;;21.97;7.75;;;;;;;-4.83;51.11;101617.50;1719455;83;21058;-41
2021/03/12 08:14:13;;;;;;;32.42;6.67;;;;;;;-4.65;50.90;101606.40;1717898;82;20959;-40
2021/03/12 08:17:06;;;;;;;96.67;10.23;;;;;;;-4.52;50.33;101596.66;1719393;83;21010;-40
2021/03/12 08:19:39;;;;;;;41.23;7.30;;;;;;;-4.54;50.48;101601.63;1719375;83;20998;-41
2021/03/12 08:22:32;;;;;;;51.95;8.18;;;;;;;-4.55;50.76;101598.59;1719040;83;21113;-42
2021/03/12 08:25:05;;;;;;;23.80;6.50;;;;;;;-4.45;51.21;101578.55;1718155;83;21011;-42
2021/03/12 08:27:47;;;;;;;70.97;8.28;;;;;;;-4.39;49.83;101585.27;1699168;83;21093;-41
2021/03/12 08:30:29;;;;;;;117.65;9.88;;;;;;;-4.35;49.42;101573.28;1718354;83;20947;-42
2021/03/12 08:32:58;;;;;;;86.85;7.60;;;;;;;-4.37;49.67;101578.64;1719263;83;20939;-41
2021/03/12 08:35:39;;;;;;;21.50;6.60;;;;;;;-4.42;49.51;101590.13;1706542;83;21377;-41
2021/03/12 08:38:32;;;;;;;13.10;6.15;;;;;;;-4.40;49.22;101581.36;1714658;83;20967;-40
2021/03/12 08:41:14;;;;;;;23.67;7.65;;;;;;;-4.33;49.25;101581.83;1714660;83;20983;-42
2021/03/12 08:43:50;;;;;;;16.60;7.28;;;;;;;-4.24;48.91;101568.87;1712825;83;20975;-42
2021/03/12 08:46:29;;;;;;;29.37;6.20;;;;;;;-4.12;49.58;101571.26;1698871;83;21051;-42
2021/03/12 08:49:04;;;;;;;13.72;5.53;;;;;;;-4.00;48.64;101570.22;1714227;83;22267;-42
2021/03/12 08:51:32;;;;;;;19.82;6.83;;;;;;;-4.01;48.86;101588.72;1714085;83;21050;-41
2021/03/12 08:54:02;;;;;;;18.87;6.28;;;;;;;-4.00;48.99;101579.08;1711782;83;21062;-41
2021/03/12 08:56:34;;;;;;;19.95;6.47;;;;;;;-4.01;49.08;101572.27;1712975;83;21049;-42
2021/03/12 08:59:04;;;;;;;31.62;8.00;;;;;;;-4.02;49.16;101576.85;1714258;83;21011;-42
2021/03/12 09:01:41;;;;;;;13.62;6.22;;;;;;;-3.95;49.16;101588.70;1714632;83;21391;-42
2021/03/12 09:04:14;;;;;;;17.00;5.70;;;;;;;-3.81;48.88;101579.38;1713229;83;21094;-41
2021/03/12 09:06:49;;;;;;;27.30;6.72;;;;;;;-3.75;48.43;101564.55;1713062;83;20943;-42
2021/03/12 09:09:26;;;;;;;35.75;7.20;;;;;;;-3.65;49.30;101568.48;1713321;82;20951;-42
2021/03/12 09:12:01;;;;;;;36.48;6.90;;;;;;;-3.50;48.83;101580.28;1714211;83;20947;-41
2021/03/12 09:14:40;;;;;;;23.50;5.83;;;;;;;-3.26;48.75;101575.72;1712170;83;21360;-42
2021/03/12 09:17:08;;;;;;;32.03;6.80;;;;;;;-3.00;47.70;101563.62;1688099;83;21023;-41
2021/03/12 09:19:36;;;;;;;17.85;5.33;;;;;;;-2.86;46.84;101560.98;1714077;83;21082;-41
2021/03/12 09:22:06;;;;;;;12.35;5.90;;;;;;;-2.76;46.37;101566.63;1713334;83;21022;-41
2021/03/12 09:24:37;;;;;;;18.23;5.67;;;;;;;-2.57;45.88;101571.81;1713687;83;21019;-41
2021/03/12 09:27:09;;;;;;;11.48;6.12;;;;;;;-2.65;46.28;101568.86;1714133;83;21468;-41
2021/03/12 09:29:40;;;;;;;12.55;6.20;;;;;;;-2.52;45.75;101552.63;1686899;83;21520;-42
2021/03/12 09:32:10;;;;;;;12.03;5.30;;;;;;;-2.45;45.79;101557.23;1713901;82;21026;-42
2021/03/12 09:34:42;;;;;;;13.65;5.87;;;;;;;-2.35;44.88;101544.25;1714821;83;21094;-41
2021/03/12 09:37:12;;;;;;;77.37;10.63;;;;;;;-2.31;45.62;101537.27;1718793;83;21042;-40
2021/03/12 09:39:52;;;;;;;30.00;7.42;;;;;;;-2.14;46.29;101521.16;1718104;83;21220;-47
2021/03/12 09:42:22;;;;;;;333.75;20.40;;;;;;;-1.94;45.68;101524.69;1718959;83;21041;-40
2021/03/12 09:44:51;;;;;;;59.83;7.10;;;;;;;-2.14;44.49;101520.78;1718534;83;20975;-40
2021/03/12 09:47:21;;;;;;;30.12;7.15;;;;;;;-2.39;45.59;101520.80;1719102;83;20963;-40
2021/03/12 09:49:50;;;;;;;54.13;7.20;;;;;;;-2.42;46.17;101528.63;1719488;83;21026;-41
2021/03/12 09:52:21;;;;;;;58.17;9.55;;;;;;;-2.37;45.64;101528.08;1719612;83;21408;-41
2021/03/12 09:54:55;;;;;;;61.88;8.10;;;;;;;-2.52;46.01;101513.33;1719364;83;20970;-40
2021/03/12 09:57:24;;;;;;;21.25;7.03;;;;;;;-2.46;47.12;101516.17;1649182;83;20959;-40
2021/03/12 09:59:54;;;;;;;15.95;6.55;;;;;;;-2.22;46.25;101509.34;1719504;82;21056;-41
2021/03/12 10:02:24;;;;;;;75.20;8.23;;;;;;;-2.00;45.96;101494.83;1715619;83;21007;-42
2021/03/12 10:05:07;;;;;;;26.70;6.50;;;;;;;-1.93;43.90;101483.28;1682891;83;21453;-43
2021/03/12 10:07:58;;;;;;;16.25;6.65;;;;;;;-2.09;44.19;101469.86;1719751;83;20975;-41
2021/03/12 10:10:30;;;;;;;31.35;7.72;;;;;;;-2.14;45.19;101461.16;1694553;83;21053;-42
2021/03/12 10:13:04;;;;;;;19.15;6.75;;;;;;;-2.03;45.07;101452.77;1719679;83;20963;-41
2021/03/12 10:15:39;;;;;;;16.87;6.75;;;;;;;-1.80;44.65;101444.13;1719499;82;21568;-42
2021/03/12 10:18:25;;;;;;;22.48;7.05;;;;;;;-1.76;44.05;101430.41;1719773;83;21396;-42
2021/03/12 10:20:55;;;;;;;34.75;7.53;;;;;;;-1.81;43.81;101421.70;1718322;83;21023;-41
2021/03/12 10:23:24;;;;;;;23.85;6.80;;;;;;;-1.98;43.35;101418.74;1719736;83;21046;-43
2021/03/12 10:25:52;;;;;;;30.32;6.60;;;;;;;-2.18;43.78;101425.86;1693896;83;21022;-41
2021/03/12 10:28:20;;;;;;;25.05;6.80;;;;;;;-2.32;44.53;101422.64;1719811;83;21034;-41
2021/03/12 10:30:59;;;;;;;20.90;6.58;;;;;;;-2.31;45.49;101415.50;1719806;83;21392;-42
2021/03/12 10:33:30;;;;;;;34.67;6.55;;;;;;;-2.15;44.26;101409.90;1719637;83;21074;-43
2021/03/12 10:36:02;;;;;;;26.05;6.58;;;;;;;-2.12;44.51;101402.84;1710803;83;21023;-42
2021/03/12 10:38:34;;;;;;;22.67;5.85;;;;;;;-2.03;43.97;101385.52;1716317;83;21046;-42
2021/03/12 10:41:20;;;;;;;15.15;5.53;;;;;;;-1.89;43.52;101384.94;1706140;83;20999;-40
2021/03/12 10:44:02;;;;;;;20.77;6.25;;;;;;;-1.69;43.44;101376.98;1706240;84;21384;-41
2021/03/12 10:46:34;;;;;;;16.35;6.55;;;;;;;-1.48;43.87;101372.42;1706217;84;21007;-41
2021/03/12 10:49:02;;;;;;;21.82;5.97;;;;;;;-1.31;42.16;101358.79;1706176;84;21322;-40
2021/03/12 10:51:39;;;;;;;19.40;5.87;;;;;;;-1.33;42.42;101351.92;1706274;83;21644;-41
2021/03/12 10:54:12;;;;;;;30.45;5.28;;;;;;;-1.31;42.42;101350.31;1706171;84;20983;-42
2021/03/12 10:56:49;;;;;;;56.65;6.87;;;;;;;-1.24;42.77;101344.70;1706132;84;21376;-43
2021/03/12 10:59:17;;;;;;;20.17;5.50;;;;;;;-1.29;42.53;101325.84;1706257;84;21588;-41
2021/03/12 11:01:48;;;;;;;43.60;6.87;;;;;;;-1.32;42.06;101308.78;1706157;84;21035;-40
2021/03/12 11:04:16;;;;;;;23.77;6.00;;;;;;;-1.29;42.92;101295.36;1706252;84;21627;-43
2021/03/12 11:06:46;;;;;;;13.53;5.45;;;;;;;-1.21;42.02;101285.11;1706218;83;21039;-42
2021/03/12 11:09:14;;;;;;;32.65;5.65;;;;;;;-1.18;41.80;101280.58;1706178;84;21283;-42
2021/03/12 11:11:44;;;;;;;134.78;8.75;;;;;;;-1.22;41.63;101273.63;1706180;84;21102;-41
2021/03/12 11:14:11;;;;;;;44.25;6.72;;;;;;;-1.41;41.35;101280.83;1706179;82;21209;-41
2021/03/12 11:16:39;;;;;;;46.37;5.83;;;;;;;-1.62;42.59;101277.83;1706146;84;20974;-42
2021/03/12 11:19:07;;;;;;;50.12;7.65;;;;;;;-1.68;42.55;101275.00;1706179;84;20982;-43
2021/03/12 11:21:35;;;;;;;52.60;6.58;;;;;;;-1.64;43.68;101277.75;1706220;83;21380;-42
2021/03/12 11:24:04;;;;;;;56.68;6.95;;;;;;;-1.54;44.00;101265.06;1706156;83;20944;-42
2021/03/12 11:26:32;;;;;;;66.72;7.15;;;;;;;-1.55;43.29;101258.64;1706246;84;21319;-40
2021/03/12 11:28:59;;;;;;;70.65;7.20;;;;;;;-1.54;43.94;101247.28;1706185;84;21031;-42
2021/03/12 11:31:27;;;;;;;336.25;13.55;;;;;;;-1.58;42.98;101246.69;1706174;82;21036;-41
2021/03/12 11:33:55;;;;;;;48.25;6.22;;;;;;;-1.71;43.43;101252.89;1706135;84;21273;-41
2021/03/12 11:36:23;;;;;;;57.40;6.92;;;;;;;-1.80;43.35;101260.08;1706167;84;21004;-39
2021/03/12 11:38:51;;;;;;;46.10;6.50;;;;;;;-1.73;43.88;101254.50;1706192;84;20953;-40
2021/03/12 11:41:19;;;;;;;42.17;7.08;;;;;;;-1.85;43.53;101266.63;1727177;83;21568;-40
2021/03/12 11:43:48;;;;;;;18.92;5.33;;;;;;;-1.95;44.19;101258.98;1727039;83;20939;-42